KOWD/OWD METAR and TAF weather

Enter ICAO airport designator
Station Type Date Time Source
KOWD METAR 2019/08/17 10:14 UTC NOAA

KOWD 171014Z AUTO 19003KT 10SM OVC004 22/19 A3006 RMK AO2 T02170189 $


Station Type Date Time Source
KOWD Decoded METAR 2019/08/17 10:14 UTC NOAA

Station name not available
Aug 17, 2019 - 06:14 AM EDT / 2019.08.17 1014 UTC
Wind: from the S (190 degrees) at 3 MPH (3 KT):0
Visibility: 10 mile(s):0
Sky conditions: overcast
Temperature: 71.1 F (21.7 C)
Dew Point: 66.0 F (18.9 C)
Relative Humidity: 84%
Pressure (altimeter): 30.06 in. Hg (1017 hPa)
ob: KOWD 171014Z AUTO 19003KT 10SM OVC004 22/19 A3006 RMK AO2 T02170189
cycle: 10

Station Type Date Time Source
KOWD TAF UTC NOAA

Error!

Example: see airport list